Locke, California
Current Conditions -  °F | °C
As of 9:58 AM on Saturday 25 Oct 2014 (Local Time) from KSUU Reporting Station
Broken Clouds Broken Clouds  
Wind Chill: 61°   Ceiling: 5000
Heat Index: 61°   Visibility: 10mi
Dew Point: 61°   Wind: 14mph
Humidity: 99%   Direction: 180°S
Pressure: 30.01"   Gusts: NA
Location:  38.2298°N, 121.579°W
Report Text: KSUU 251658Z AUTO 18012KT 10SM BKN050 16/16 A3001 RMK AO2 RAE1556 SLP169 T01620160 $
Loading
Personal Weather Stations






























Interactive Weather Map
Tropical Storm Tracking
New forecast layout! Learn more

10-Day Weather Forecast

Advertisements
Track Severe Weather on mobile